sensor_id;sensor_type;location;lat;lon;timestamp;P1;P2;P0
40371;PMS5003;28564;53.346;-6.554;2023-08-24T00:02:04;2;2;
40371;PMS5003;28564;53.346;-6.554;2023-08-24T00:04:32;3;2;
40371;PMS5003;28564;53.346;-6.554;2023-08-24T00:06:59;2;1;
40371;PMS5003;28564;53.346;-6.554;2023-08-24T00:09:26;3;2;
40371;PMS5003;28564;53.346;-6.554;2023-08-24T00:11:54;4;2;
40371;PMS5003;28564;53.346;-6.554;2023-08-24T00:14:21;1;1;
40371;PMS5003;28564;53.346;-6.554;2023-08-24T00:16:48;3;3;
40371;PMS5003;28564;53.346;-6.554;2023-08-24T00:19:16;1;1;
40371;PMS5003;28564;53.346;-6.554;2023-08-24T00:21:43;1;1;
40371;PMS5003;28564;53.346;-6.554;2023-08-24T00:24:10;1;1;
40371;PMS5003;28564;53.346;-6.554;2023-08-24T00:26:37;2;2;
40371;PMS5003;28564;53.346;-6.554;2023-08-24T00:29:04;2;2;
40371;PMS5003;28564;53.346;-6.554;2023-08-24T00:31:31;5;3;
40371;PMS5003;28564;53.346;-6.554;2023-08-24T00:33:58;4;3;
40371;PMS5003;28564;53.346;-6.554;2023-08-24T00:36:25;2;2;
40371;PMS5003;28564;53.346;-6.554;2023-08-24T00:38:53;5;3;
40371;PMS5003;28564;53.346;-6.554;2023-08-24T00:41:20;5;2;
40371;PMS5003;28564;53.346;-6.554;2023-08-24T00:43:47;4;3;
40371;PMS5003;28564;53.346;-6.554;2023-08-24T00:46:14;3;3;
40371;PMS5003;28564;53.346;-6.554;2023-08-24T00:48:41;2;2;
40371;PMS5003;28564;53.346;-6.554;2023-08-24T00:51:08;2;2;
40371;PMS5003;28564;53.346;-6.554;2023-08-24T00:53:35;6;3;
40371;PMS5003;28564;53.346;-6.554;2023-08-24T00:56:04;4;2;
40371;PMS5003;28564;53.346;-6.554;2023-08-24T00:58:32;3;3;
40371;PMS5003;28564;53.346;-6.554;2023-08-24T01:01:00;3;2;
40371;PMS5003;28564;53.346;-6.554;2023-08-24T01:03:28;1;1;
40371;PMS5003;28564;53.346;-6.554;2023-08-24T01:05:55;2;2;
40371;PMS5003;28564;53.346;-6.554;2023-08-24T01:08:22;3;3;
40371;PMS5003;28564;53.346;-6.554;2023-08-24T01:10:52;0;0;
40371;PMS5003;28564;53.346;-6.554;2023-08-24T01:13:27;2;2;
40371;PMS5003;28564;53.346;-6.554;2023-08-24T01:16:04;4;2;
40371;PMS5003;28564;53.346;-6.554;2023-08-24T01:18:38;3;3;
40371;PMS5003;28564;53.346;-6.554;2023-08-24T01:21:06;3;3;
40371;PMS5003;28564;53.346;-6.554;2023-08-24T01:23:36;2;1;
40371;PMS5003;28564;53.346;-6.554;2023-08-24T01:26:11;2;2;
40371;PMS5003;28564;53.346;-6.554;2023-08-24T01:28:40;4;3;
40371;PMS5003;28564;53.346;-6.554;2023-08-24T01:31:09;5;3;
40371;PMS5003;28564;53.346;-6.554;2023-08-24T01:33:37;1;1;
40371;PMS5003;28564;53.346;-6.554;2023-08-24T01:36:06;2;2;
40371;PMS5003;28564;53.346;-6.554;2023-08-24T01:38:34;1;1;
40371;PMS5003;28564;53.346;-6.554;2023-08-24T01:41:05;5;3;
40371;PMS5003;28564;53.346;-6.554;2023-08-24T01:43:38;1;1;
40371;PMS5003;28564;53.346;-6.554;2023-08-24T01:46:07;2;2;
40371;PMS5003;28564;53.346;-6.554;2023-08-24T01:48:34;2;2;
40371;PMS5003;28564;53.346;-6.554;2023-08-24T01:51:02;3;3;
40371;PMS5003;28564;53.346;-6.554;2023-08-24T01:53:31;4;3;
40371;PMS5003;28564;53.346;-6.554;2023-08-24T01:55:59;4;1;
40371;PMS5003;28564;53.346;-6.554;2023-08-24T01:58:26;1;1;
40371;PMS5003;28564;53.346;-6.554;2023-08-24T02:00:53;4;3;
40371;PMS5003;28564;53.346;-6.554;2023-08-24T02:03:20;1;1;
40371;PMS5003;28564;53.346;-6.554;2023-08-24T02:05:47;3;3;
40371;PMS5003;28564;53.346;-6.554;2023-08-24T02:08:14;8;5;
40371;PMS5003;28564;53.346;-6.554;2023-08-24T02:10:41;4;4;
40371;PMS5003;28564;53.346;-6.554;2023-08-24T02:13:08;3;3;
40371;PMS5003;28564;53.346;-6.554;2023-08-24T02:15:36;4;4;
40371;PMS5003;28564;53.346;-6.554;2023-08-24T02:18:04;2;2;
40371;PMS5003;28564;53.346;-6.554;2023-08-24T02:20:34;4;4;
40371;PMS5003;28564;53.346;-6.554;2023-08-24T02:23:02;2;2;
40371;PMS5003;28564;53.346;-6.554;2023-08-24T02:25:30;2;2;
40371;PMS5003;28564;53.346;-6.554;2023-08-24T02:27:57;4;3;
40371;PMS5003;28564;53.346;-6.554;2023-08-24T02:30:24;3;3;
40371;PMS5003;28564;53.346;-6.554;2023-08-24T02:32:51;3;3;
40371;PMS5003;28564;53.346;-6.554;2023-08-24T02:35:18;3;2;
40371;PMS5003;28564;53.346;-6.554;2023-08-24T02:37:45;2;1;
40371;PMS5003;28564;53.346;-6.554;2023-08-24T02:40:12;4;3;
40371;PMS5003;28564;53.346;-6.554;2023-08-24T02:42:39;2;2;
40371;PMS5003;28564;53.346;-6.554;2023-08-24T02:45:06;4;4;
40371;PMS5003;28564;53.346;-6.554;2023-08-24T02:47:34;4;3;
40371;PMS5003;28564;53.346;-6.554;2023-08-24T02:50:01;3;3;
40371;PMS5003;28564;53.346;-6.554;2023-08-24T02:52:28;3;3;
40371;PMS5003;28564;53.346;-6.554;2023-08-24T02:54:55;7;3;
40371;PMS5003;28564;53.346;-6.554;2023-08-24T02:57:22;3;3;
40371;PMS5003;28564;53.346;-6.554;2023-08-24T02:59:49;4;1;
40371;PMS5003;28564;53.346;-6.554;2023-08-24T03:02:16;3;3;
40371;PMS5003;28564;53.346;-6.554;2023-08-24T03:04:43;3;3;
40371;PMS5003;28564;53.346;-6.554;2023-08-24T03:07:11;4;2;
40371;PMS5003;28564;53.346;-6.554;2023-08-24T03:09:38;2;2;
40371;PMS5003;28564;53.346;-6.554;2023-08-24T03:12:05;4;3;
40371;PMS5003;28564;53.346;-6.554;2023-08-24T03:14:33;4;3;
40371;PMS5003;28564;53.346;-6.554;2023-08-24T03:17:00;3;3;
40371;PMS5003;28564;53.346;-6.554;2023-08-24T03:19:27;4;4;
40371;PMS5003;28564;53.346;-6.554;2023-08-24T03:21:55;2;2;
40371;PMS5003;28564;53.346;-6.554;2023-08-24T03:24:22;3;2;
40371;PMS5003;28564;53.346;-6.554;2023-08-24T03:26:49;2;2;
40371;PMS5003;28564;53.346;-6.554;2023-08-24T03:29:16;4;2;
40371;PMS5003;28564;53.346;-6.554;2023-08-24T03:31:43;2;2;
40371;PMS5003;28564;53.346;-6.554;2023-08-24T03:34:10;4;3;
40371;PMS5003;28564;53.346;-6.554;2023-08-24T03:36:37;3;3;
40371;PMS5003;28564;53.346;-6.554;2023-08-24T03:39:04;3;3;
40371;PMS5003;28564;53.346;-6.554;2023-08-24T03:41:31;3;2;
40371;PMS5003;28564;53.346;-6.554;2023-08-24T03:43:59;4;4;
40371;PMS5003;28564;53.346;-6.554;2023-08-24T03:46:26;5;3;
40371;PMS5003;28564;53.346;-6.554;2023-08-24T03:48:53;3;3;
40371;PMS5003;28564;53.346;-6.554;2023-08-24T03:51:20;1;1;
40371;PMS5003;28564;53.346;-6.554;2023-08-24T03:53:47;3;3;
40371;PMS5003;28564;53.346;-6.554;2023-08-24T03:56:14;3;2;
40371;PMS5003;28564;53.346;-6.554;2023-08-24T03:58:41;4;4;
40371;PMS5003;28564;53.346;-6.554;2023-08-24T04:01:09;3;3;
40371;PMS5003;28564;53.346;-6.554;2023-08-24T04:03:37;4;3;
40371;PMS5003;28564;53.346;-6.554;2023-08-24T04:06:04;3;1;
40371;PMS5003;28564;53.346;-6.554;2023-08-24T04:08:31;2;2;
40371;PMS5003;28564;53.346;-6.554;2023-08-24T04:10:59;2;2;
40371;PMS5003;28564;53.346;-6.554;2023-08-24T04:13:26;2;2;
40371;PMS5003;28564;53.346;-6.554;2023-08-24T04:15:53;2;2;
40371;PMS5003;28564;53.346;-6.554;2023-08-24T04:18:20;3;1;
40371;PMS5003;28564;53.346;-6.554;2023-08-24T04:20:47;2;2;
40371;PMS5003;28564;53.346;-6.554;2023-08-24T04:23:15;1;1;
40371;PMS5003;28564;53.346;-6.554;2023-08-24T04:25:42;0;0;
40371;PMS5003;28564;53.346;-6.554;2023-08-24T04:28:09;3;2;
40371;PMS5003;28564;53.346;-6.554;2023-08-24T04:30:36;1;1;
40371;PMS5003;28564;53.346;-6.554;2023-08-24T04:33:04;2;1;
40371;PMS5003;28564;53.346;-6.554;2023-08-24T04:35:33;2;2;
40371;PMS5003;28564;53.346;-6.554;2023-08-24T04:38:00;1;1;
40371;PMS5003;28564;53.346;-6.554;2023-08-24T04:40:28;1;1;
40371;PMS5003;28564;53.346;-6.554;2023-08-24T04:42:55;1;1;
40371;PMS5003;28564;53.346;-6.554;2023-08-24T04:45:22;2;2;
40371;PMS5003;28564;53.346;-6.554;2023-08-24T04:47:49;3;1;
40371;PMS5003;28564;53.346;-6.554;2023-08-24T04:50:16;2;2;
40371;PMS5003;28564;53.346;-6.554;2023-08-24T04:52:43;1;1;
40371;PMS5003;28564;53.346;-6.554;2023-08-24T04:55:10;1;1;
40371;PMS5003;28564;53.346;-6.554;2023-08-24T04:57:37;0;0;
40371;PMS5003;28564;53.346;-6.554;2023-08-24T05:00:05;2;2;
40371;PMS5003;28564;53.346;-6.554;2023-08-24T05:02:33;1;1;
40371;PMS5003;28564;53.346;-6.554;2023-08-24T05:05:01;1;1;
40371;PMS5003;28564;53.346;-6.554;2023-08-24T05:07:28;1;1;
40371;PMS5003;28564;53.346;-6.554;2023-08-24T05:09:55;3;1;
40371;PMS5003;28564;53.346;-6.554;2023-08-24T05:12:22;1;1;
40371;PMS5003;28564;53.346;-6.554;2023-08-24T05:14:49;2;1;
40371;PMS5003;28564;53.346;-6.554;2023-08-24T05:17:16;3;3;
40371;PMS5003;28564;53.346;-6.554;2023-08-24T05:19:44;2;2;
40371;PMS5003;28564;53.346;-6.554;2023-08-24T05:22:11;3;2;
40371;PMS5003;28564;53.346;-6.554;2023-08-24T05:24:38;3;3;
40371;PMS5003;28564;53.346;-6.554;2023-08-24T05:27:06;6;4;
40371;PMS5003;28564;53.346;-6.554;2023-08-24T05:29:33;5;5;
40371;PMS5003;28564;53.346;-6.554;2023-08-24T05:32:00;5;4;
40371;PMS5003;28564;53.346;-6.554;2023-08-24T05:34:28;8;8;
40371;PMS5003;28564;53.346;-6.554;2023-08-24T05:36:55;13;11;
40371;PMS5003;28564;53.346;-6.554;2023-08-24T05:39:22;5;5;
40371;PMS5003;28564;53.346;-6.554;2023-08-24T05:41:50;3;3;
40371;PMS5003;28564;53.346;-6.554;2023-08-24T05:44:18;1;1;
40371;PMS5003;28564;53.346;-6.554;2023-08-24T05:46:45;2;2;
40371;PMS5003;28564;53.346;-6.554;2023-08-24T05:49:13;2;2;
40371;PMS5003;28564;53.346;-6.554;2023-08-24T05:51:40;4;3;
40371;PMS5003;28564;53.346;-6.554;2023-08-24T05:54:07;5;3;
40371;PMS5003;28564;53.346;-6.554;2023-08-24T05:56:34;3;3;
40371;PMS5003;28564;53.346;-6.554;2023-08-24T05:59:01;2;2;
40371;PMS5003;28564;53.346;-6.554;2023-08-24T06:01:28;1;1;
40371;PMS5003;28564;53.346;-6.554;2023-08-24T06:03:56;2;2;
40371;PMS5003;28564;53.346;-6.554;2023-08-24T06:06:23;2;2;
40371;PMS5003;28564;53.346;-6.554;2023-08-24T06:08:50;3;3;
40371;PMS5003;28564;53.346;-6.554;2023-08-24T06:11:17;2;2;
40371;PMS5003;28564;53.346;-6.554;2023-08-24T06:13:44;5;2;
40371;PMS5003;28564;53.346;-6.554;2023-08-24T06:16:11;3;2;
40371;PMS5003;28564;53.346;-6.554;2023-08-24T06:18:38;4;4;
40371;PMS5003;28564;53.346;-6.554;2023-08-24T06:21:06;4;4;
40371;PMS5003;28564;53.346;-6.554;2023-08-24T06:23:33;4;4;
40371;PMS5003;28564;53.346;-6.554;2023-08-24T06:26:00;4;3;
40371;PMS5003;28564;53.346;-6.554;2023-08-24T06:28:27;4;4;
40371;PMS5003;28564;53.346;-6.554;2023-08-24T06:30:55;6;6;
40371;PMS5003;28564;53.346;-6.554;2023-08-24T06:33:26;6;6;
40371;PMS5003;28564;53.346;-6.554;2023-08-24T06:35:54;5;5;
40371;PMS5003;28564;53.346;-6.554;2023-08-24T06:38:21;10;7;
40371;PMS5003;28564;53.346;-6.554;2023-08-24T06:40:48;8;8;
40371;PMS5003;28564;53.346;-6.554;2023-08-24T06:43:15;7;6;
40371;PMS5003;28564;53.346;-6.554;2023-08-24T06:45:43;8;7;
40371;PMS5003;28564;53.346;-6.554;2023-08-24T06:48:11;8;7;
40371;PMS5003;28564;53.346;-6.554;2023-08-24T06:50:38;7;7;
40371;PMS5003;28564;53.346;-6.554;2023-08-24T06:53:06;8;7;
40371;PMS5003;28564;53.346;-6.554;2023-08-24T06:55:32;16;15;
40371;PMS5003;28564;53.346;-6.554;2023-08-24T06:57:59;9;7;
40371;PMS5003;28564;53.346;-6.554;2023-08-24T07:00:27;11;11;
40371;PMS5003;28564;53.346;-6.554;2023-08-24T07:02:54;14;10;
40371;PMS5003;28564;53.346;-6.554;2023-08-24T07:05:21;9;7;
40371;PMS5003;28564;53.346;-6.554;2023-08-24T07:07:49;9;9;
40371;PMS5003;28564;53.346;-6.554;2023-08-24T07:10:17;9;8;
40371;PMS5003;28564;53.346;-6.554;2023-08-24T07:12:44;4;4;
40371;PMS5003;28564;53.346;-6.554;2023-08-24T07:15:11;8;7;
40371;PMS5003;28564;53.346;-6.554;2023-08-24T07:17:39;6;4;
40371;PMS5003;28564;53.346;-6.554;2023-08-24T07:20:07;6;6;
40371;PMS5003;28564;53.346;-6.554;2023-08-24T07:22:35;6;5;
40371;PMS5003;28564;53.346;-6.554;2023-08-24T07:25:02;4;4;
40371;PMS5003;28564;53.346;-6.554;2023-08-24T07:27:30;5;5;
40371;PMS5003;28564;53.346;-6.554;2023-08-24T07:29:58;5;5;
40371;PMS5003;28564;53.346;-6.554;2023-08-24T07:32:26;4;4;
40371;PMS5003;28564;53.346;-6.554;2023-08-24T07:34:53;3;3;
40371;PMS5003;28564;53.346;-6.554;2023-08-24T07:37:20;7;7;
40371;PMS5003;28564;53.346;-6.554;2023-08-24T07:39:47;3;3;
40371;PMS5003;28564;53.346;-6.554;2023-08-24T07:42:14;2;2;
40371;PMS5003;28564;53.346;-6.554;2023-08-24T07:44:41;3;1;
40371;PMS5003;28564;53.346;-6.554;2023-08-24T07:47:08;3;2;
40371;PMS5003;28564;53.346;-6.554;2023-08-24T07:49:35;4;3;
40371;PMS5003;28564;53.346;-6.554;2023-08-24T07:52:03;4;3;
40371;PMS5003;28564;53.346;-6.554;2023-08-24T07:54:30;2;2;
40371;PMS5003;28564;53.346;-6.554;2023-08-24T07:56:57;0;0;
40371;PMS5003;28564;53.346;-6.554;2023-08-24T07:59:25;4;1;
40371;PMS5003;28564;53.346;-6.554;2023-08-24T08:01:52;4;2;
40371;PMS5003;28564;53.346;-6.554;2023-08-24T08:04:19;1;1;
40371;PMS5003;28564;53.346;-6.554;2023-08-24T08:06:47;1;1;
40371;PMS5003;28564;53.346;-6.554;2023-08-24T08:09:14;3;2;
40371;PMS5003;28564;53.346;-6.554;2023-08-24T08:11:41;2;2;
40371;PMS5003;28564;53.346;-6.554;2023-08-24T08:14:08;2;1;
40371;PMS5003;28564;53.346;-6.554;2023-08-24T08:16:36;1;1;
40371;PMS5003;28564;53.346;-6.554;2023-08-24T08:19:03;2;0;
40371;PMS5003;28564;53.346;-6.554;2023-08-24T08:21:30;2;2;
40371;PMS5003;28564;53.346;-6.554;2023-08-24T08:23:57;0;0;
40371;PMS5003;28564;53.346;-6.554;2023-08-24T08:26:24;2;0;
40371;PMS5003;28564;53.346;-6.554;2023-08-24T08:28:52;0;0;
40371;PMS5003;28564;53.346;-6.554;2023-08-24T08:31:19;1;1;
40371;PMS5003;28564;53.346;-6.554;2023-08-24T08:33:46;2;1;
40371;PMS5003;28564;53.346;-6.554;2023-08-24T08:36:13;1;1;
40371;PMS5003;28564;53.346;-6.554;2023-08-24T08:38:40;3;2;
40371;PMS5003;28564;53.346;-6.554;2023-08-24T08:41:07;6;6;
40371;PMS5003;28564;53.346;-6.554;2023-08-24T08:43:35;5;5;
40371;PMS5003;28564;53.346;-6.554;2023-08-24T08:46:05;2;2;
40371;PMS5003;28564;53.346;-6.554;2023-08-24T08:48:33;3;2;
40371;PMS5003;28564;53.346;-6.554;2023-08-24T08:51:01;0;0;
40371;PMS5003;28564;53.346;-6.554;2023-08-24T08:53:34;0;0;
40371;PMS5003;28564;53.346;-6.554;2023-08-24T08:56:01;2;1;
40371;PMS5003;28564;53.346;-6.554;2023-08-24T08:58:29;0;0;
40371;PMS5003;28564;53.346;-6.554;2023-08-24T09:00:58;1;1;
40371;PMS5003;28564;53.346;-6.554;2023-08-24T09:03:26;3;0;
40371;PMS5003;28564;53.346;-6.554;2023-08-24T09:05:56;0;0;
40371;PMS5003;28564;53.346;-6.554;2023-08-24T09:08:23;0;0;
40371;PMS5003;28564;53.346;-6.554;2023-08-24T09:10:52;2;0;
40371;PMS5003;28564;53.346;-6.554;2023-08-24T09:13:20;0;0;
40371;PMS5003;28564;53.346;-6.554;2023-08-24T09:15:48;1;1;
40371;PMS5003;28564;53.346;-6.554;2023-08-24T09:18:17;0;0;
40371;PMS5003;28564;53.346;-6.554;2023-08-24T09:20:46;2;1;
40371;PMS5003;28564;53.346;-6.554;2023-08-24T09:23:17;0;0;
40371;PMS5003;28564;53.346;-6.554;2023-08-24T09:25:45;0;0;
40371;PMS5003;28564;53.346;-6.554;2023-08-24T09:28:13;1;1;
40371;PMS5003;28564;53.346;-6.554;2023-08-24T09:30:40;0;0;
40371;PMS5003;28564;53.346;-6.554;2023-08-24T09:33:11;1;1;
40371;PMS5003;28564;53.346;-6.554;2023-08-24T09:35:40;3;3;
40371;PMS5003;28564;53.346;-6.554;2023-08-24T09:38:17;3;3;
40371;PMS5003;28564;53.346;-6.554;2023-08-24T09:40:44;5;3;
40371;PMS5003;28564;53.346;-6.554;2023-08-24T09:43:12;3;3;
40371;PMS5003;28564;53.346;-6.554;2023-08-24T09:45:45;2;2;
40371;PMS5003;28564;53.346;-6.554;2023-08-24T09:48:14;2;2;
40371;PMS5003;28564;53.346;-6.554;2023-08-24T09:50:41;4;2;
40371;PMS5003;28564;53.346;-6.554;2023-08-24T09:53:09;4;2;
40371;PMS5003;28564;53.346;-6.554;2023-08-24T09:55:41;2;1;
40371;PMS5003;28564;53.346;-6.554;2023-08-24T09:58:13;3;2;
40371;PMS5003;28564;53.346;-6.554;2023-08-24T10:00:40;0;0;
40371;PMS5003;28564;53.346;-6.554;2023-08-24T10:03:11;3;2;
40371;PMS5003;28564;53.346;-6.554;2023-08-24T10:05:42;1;1;
40371;PMS5003;28564;53.346;-6.554;2023-08-24T10:08:09;1;1;
40371;PMS5003;28564;53.346;-6.554;2023-08-24T10:10:39;1;1;
40371;PMS5003;28564;53.346;-6.554;2023-08-24T10:13:18;2;0;
40371;PMS5003;28564;53.346;-6.554;2023-08-24T10:15:50;2;2;
40371;PMS5003;28564;53.346;-6.554;2023-08-24T10:18:18;1;1;
40371;PMS5003;28564;53.346;-6.554;2023-08-24T10:20:46;1;1;
40371;PMS5003;28564;53.346;-6.554;2023-08-24T10:23:14;2;1;
40371;PMS5003;28564;53.346;-6.554;2023-08-24T10:25:43;2;2;
40371;PMS5003;28564;53.346;-6.554;2023-08-24T10:28:13;0;0;
40371;PMS5003;28564;53.346;-6.554;2023-08-24T10:30:41;1;1;
40371;PMS5003;28564;53.346;-6.554;2023-08-24T10:33:09;0;0;
40371;PMS5003;28564;53.346;-6.554;2023-08-24T10:35:37;0;0;
40371;PMS5003;28564;53.346;-6.554;2023-08-24T10:38:05;0;0;
40371;PMS5003;28564;53.346;-6.554;2023-08-24T10:40:32;0;0;
40371;PMS5003;28564;53.346;-6.554;2023-08-24T10:43:02;0;0;
40371;PMS5003;28564;53.346;-6.554;2023-08-24T10:45:54;0;0;
40371;PMS5003;28564;53.346;-6.554;2023-08-24T10:48:22;0;0;
40371;PMS5003;28564;53.346;-6.554;2023-08-24T10:51:23;1;1;
40371;PMS5003;28564;53.346;-6.554;2023-08-24T10:53:51;1;0;
40371;PMS5003;28564;53.346;-6.554;2023-08-24T10:56:20;0;0;
40371;PMS5003;28564;53.346;-6.554;2023-08-24T10:58:48;2;1;
40371;PMS5003;28564;53.346;-6.554;2023-08-24T11:01:41;0;0;
40371;PMS5003;28564;53.346;-6.554;2023-08-24T11:04:10;1;1;
40371;PMS5003;28564;53.346;-6.554;2023-08-24T11:06:50;0;0;
40371;PMS5003;28564;53.346;-6.554;2023-08-24T11:09:19;0;0;
40371;PMS5003;28564;53.346;-6.554;2023-08-24T11:11:57;0;0;
40371;PMS5003;28564;53.346;-6.554;2023-08-24T11:14:26;0;0;
40371;PMS5003;28564;53.346;-6.554;2023-08-24T11:16:56;1;1;
40371;PMS5003;28564;53.346;-6.554;2023-08-24T11:19:24;3;1;
40371;PMS5003;28564;53.346;-6.554;2023-08-24T11:21:52;0;0;
40371;PMS5003;28564;53.346;-6.554;2023-08-24T11:24:20;0;0;
40371;PMS5003;28564;53.346;-6.554;2023-08-24T11:26:48;0;0;
40371;PMS5003;28564;53.346;-6.554;2023-08-24T11:29:15;0;0;
40371;PMS5003;28564;53.346;-6.554;2023-08-24T11:31:44;0;0;
40371;PMS5003;28564;53.346;-6.554;2023-08-24T11:34:14;0;0;
40371;PMS5003;28564;53.346;-6.554;2023-08-24T11:36:41;0;0;
40371;PMS5003;28564;53.346;-6.554;2023-08-24T11:39:14;0;0;
40371;PMS5003;28564;53.346;-6.554;2023-08-24T11:41:42;0;0;
40371;PMS5003;28564;53.346;-6.554;2023-08-24T11:44:09;0;0;
40371;PMS5003;28564;53.346;-6.554;2023-08-24T11:46:37;0;0;
40371;PMS5003;28564;53.346;-6.554;2023-08-24T11:49:05;0;0;
40371;PMS5003;28564;53.346;-6.554;2023-08-24T11:51:33;0;0;
40371;PMS5003;28564;53.346;-6.554;2023-08-24T11:54:02;0;0;
40371;PMS5003;28564;53.346;-6.554;2023-08-24T11:56:29;0;0;
40371;PMS5003;28564;53.346;-6.554;2023-08-24T11:58:56;0;0;
40371;PMS5003;28564;53.346;-6.554;2023-08-24T12:01:24;0;0;
40371;PMS5003;28564;53.346;-6.554;2023-08-24T12:03:52;0;0;
40371;PMS5003;28564;53.346;-6.554;2023-08-24T12:06:26;1;1;
40371;PMS5003;28564;53.346;-6.554;2023-08-24T12:08:54;0;0;
40371;PMS5003;28564;53.346;-6.554;2023-08-24T12:11:21;0;0;
40371;PMS5003;28564;53.346;-6.554;2023-08-24T12:13:48;0;0;
40371;PMS5003;28564;53.346;-6.554;2023-08-24T12:16:17;0;0;
40371;PMS5003;28564;53.346;-6.554;2023-08-24T12:18:47;0;0;
40371;PMS5003;28564;53.346;-6.554;2023-08-24T12:21:15;0;0;
40371;PMS5003;28564;53.346;-6.554;2023-08-24T12:23:42;1;1;
40371;PMS5003;28564;53.346;-6.554;2023-08-24T12:26:17;0;0;
40371;PMS5003;28564;53.346;-6.554;2023-08-24T12:28:48;0;0;
40371;PMS5003;28564;53.346;-6.554;2023-08-24T12:31:16;0;0;
40371;PMS5003;28564;53.346;-6.554;2023-08-24T12:33:44;1;1;
40371;PMS5003;28564;53.346;-6.554;2023-08-24T12:36:12;0;0;
40371;PMS5003;28564;53.346;-6.554;2023-08-24T12:38:39;0;0;
40371;PMS5003;28564;53.346;-6.554;2023-08-24T12:41:06;1;1;
40371;PMS5003;28564;53.346;-6.554;2023-08-24T12:43:33;0;0;
40371;PMS5003;28564;53.346;-6.554;2023-08-24T12:46:00;1;0;
40371;PMS5003;28564;53.346;-6.554;2023-08-24T12:48:28;0;0;
40371;PMS5003;28564;53.346;-6.554;2023-08-24T12:50:55;0;0;
40371;PMS5003;28564;53.346;-6.554;2023-08-24T12:53:22;2;0;
40371;PMS5003;28564;53.346;-6.554;2023-08-24T12:55:49;0;0;
40371;PMS5003;28564;53.346;-6.554;2023-08-24T12:58:15;1;0;
40371;PMS5003;28564;53.346;-6.554;2023-08-24T13:00:42;0;0;
40371;PMS5003;28564;53.346;-6.554;2023-08-24T13:03:09;1;1;
40371;PMS5003;28564;53.346;-6.554;2023-08-24T13:05:36;2;0;
40371;PMS5003;28564;53.346;-6.554;2023-08-24T13:08:03;0;0;
40371;PMS5003;28564;53.346;-6.554;2023-08-24T13:10:31;1;0;
40371;PMS5003;28564;53.346;-6.554;2023-08-24T13:12:58;0;0;
40371;PMS5003;28564;53.346;-6.554;2023-08-24T13:15:25;0;0;
40371;PMS5003;28564;53.346;-6.554;2023-08-24T13:17:52;0;0;
40371;PMS5003;28564;53.346;-6.554;2023-08-24T13:20:19;0;0;
40371;PMS5003;28564;53.346;-6.554;2023-08-24T13:22:47;0;0;
40371;PMS5003;28564;53.346;-6.554;2023-08-24T13:25:14;0;0;
40371;PMS5003;28564;53.346;-6.554;2023-08-24T13:27:41;1;1;
40371;PMS5003;28564;53.346;-6.554;2023-08-24T13:30:09;0;0;
40371;PMS5003;28564;53.346;-6.554;2023-08-24T13:32:36;0;0;
40371;PMS5003;28564;53.346;-6.554;2023-08-24T13:35:04;0;0;
40371;PMS5003;28564;53.346;-6.554;2023-08-24T13:37:32;0;0;
40371;PMS5003;28564;53.346;-6.554;2023-08-24T13:40:00;0;0;
40371;PMS5003;28564;53.346;-6.554;2023-08-24T13:42:28;0;0;
40371;PMS5003;28564;53.346;-6.554;2023-08-24T13:44:55;0;0;
40371;PMS5003;28564;53.346;-6.554;2023-08-24T13:47:22;1;0;
40371;PMS5003;28564;53.346;-6.554;2023-08-24T13:49:50;0;0;
40371;PMS5003;28564;53.346;-6.554;2023-08-24T13:52:18;0;0;
40371;PMS5003;28564;53.346;-6.554;2023-08-24T13:54:50;0;0;
40371;PMS5003;28564;53.346;-6.554;2023-08-24T13:57:18;0;0;
40371;PMS5003;28564;53.346;-6.554;2023-08-24T13:59:45;0;0;
40371;PMS5003;28564;53.346;-6.554;2023-08-24T14:02:13;0;0;
40371;PMS5003;28564;53.346;-6.554;2023-08-24T14:04:40;0;0;
40371;PMS5003;28564;53.346;-6.554;2023-08-24T14:07:08;0;0;
40371;PMS5003;28564;53.346;-6.554;2023-08-24T14:09:35;0;0;
40371;PMS5003;28564;53.346;-6.554;2023-08-24T14:12:03;0;0;
40371;PMS5003;28564;53.346;-6.554;2023-08-24T14:14:30;0;0;
40371;PMS5003;28564;53.346;-6.554;2023-08-24T14:16:58;0;0;
40371;PMS5003;28564;53.346;-6.554;2023-08-24T14:19:25;0;0;
40371;PMS5003;28564;53.346;-6.554;2023-08-24T14:21:52;2;0;
40371;PMS5003;28564;53.346;-6.554;2023-08-24T14:24:20;0;0;
40371;PMS5003;28564;53.346;-6.554;2023-08-24T14:26:47;0;0;
40371;PMS5003;28564;53.346;-6.554;2023-08-24T14:29:15;0;0;
40371;PMS5003;28564;53.346;-6.554;2023-08-24T14:31:43;0;0;
40371;PMS5003;28564;53.346;-6.554;2023-08-24T14:34:10;0;0;
40371;PMS5003;28564;53.346;-6.554;2023-08-24T14:36:39;0;0;
40371;PMS5003;28564;53.346;-6.554;2023-08-24T14:39:06;0;0;
40371;PMS5003;28564;53.346;-6.554;2023-08-24T14:41:34;0;0;
40371;PMS5003;28564;53.346;-6.554;2023-08-24T14:44:02;0;0;
40371;PMS5003;28564;53.346;-6.554;2023-08-24T14:46:29;0;0;
40371;PMS5003;28564;53.346;-6.554;2023-08-24T14:48:57;0;0;
40371;PMS5003;28564;53.346;-6.554;2023-08-24T14:51:24;0;0;
40371;PMS5003;28564;53.346;-6.554;2023-08-24T14:53:52;1;0;
40371;PMS5003;28564;53.346;-6.554;2023-08-24T14:56:19;0;0;
40371;PMS5003;28564;53.346;-6.554;2023-08-24T14:58:47;0;0;
40371;PMS5003;28564;53.346;-6.554;2023-08-24T15:01:14;0;0;
40371;PMS5003;28564;53.346;-6.554;2023-08-24T15:03:42;0;0;
40371;PMS5003;28564;53.346;-6.554;2023-08-24T15:06:10;2;0;
40371;PMS5003;28564;53.346;-6.554;2023-08-24T15:08:37;1;0;
40371;PMS5003;28564;53.346;-6.554;2023-08-24T15:11:05;0;0;
40371;PMS5003;28564;53.346;-6.554;2023-08-24T15:13:32;0;0;
40371;PMS5003;28564;53.346;-6.554;2023-08-24T15:16:00;0;0;
40371;PMS5003;28564;53.346;-6.554;2023-08-24T15:18:28;0;0;
40371;PMS5003;28564;53.346;-6.554;2023-08-24T15:20:55;0;0;
40371;PMS5003;28564;53.346;-6.554;2023-08-24T15:23:23;0;0;
40371;PMS5003;28564;53.346;-6.554;2023-08-24T15:25:52;0;0;
40371;PMS5003;28564;53.346;-6.554;2023-08-24T15:28:21;0;0;
40371;PMS5003;28564;53.346;-6.554;2023-08-24T15:30:48;0;0;
40371;PMS5003;28564;53.346;-6.554;2023-08-24T15:33:16;0;0;
40371;PMS5003;28564;53.346;-6.554;2023-08-24T15:35:45;0;0;
40371;PMS5003;28564;53.346;-6.554;2023-08-24T15:38:12;1;0;
40371;PMS5003;28564;53.346;-6.554;2023-08-24T15:40:40;0;0;
40371;PMS5003;28564;53.346;-6.554;2023-08-24T15:43:07;0;0;
40371;PMS5003;28564;53.346;-6.554;2023-08-24T15:45:34;0;0;
40371;PMS5003;28564;53.346;-6.554;2023-08-24T15:48:02;0;0;
40371;PMS5003;28564;53.346;-6.554;2023-08-24T15:50:30;0;0;
40371;PMS5003;28564;53.346;-6.554;2023-08-24T15:52:57;0;0;
40371;PMS5003;28564;53.346;-6.554;2023-08-24T15:55:27;1;1;
40371;PMS5003;28564;53.346;-6.554;2023-08-24T15:57:55;0;0;
40371;PMS5003;28564;53.346;-6.554;2023-08-24T16:00:24;0;0;
40371;PMS5003;28564;53.346;-6.554;2023-08-24T16:02:52;1;0;
40371;PMS5003;28564;53.346;-6.554;2023-08-24T16:05:19;0;0;
40371;PMS5003;28564;53.346;-6.554;2023-08-24T16:07:47;1;0;
40371;PMS5003;28564;53.346;-6.554;2023-08-24T16:10:17;0;0;
40371;PMS5003;28564;53.346;-6.554;2023-08-24T16:12:44;1;0;
40371;PMS5003;28564;53.346;-6.554;2023-08-24T16:15:12;0;0;
40371;PMS5003;28564;53.346;-6.554;2023-08-24T16:17:39;0;0;
40371;PMS5003;28564;53.346;-6.554;2023-08-24T16:20:07;0;0;
40371;PMS5003;28564;53.346;-6.554;2023-08-24T16:22:36;0;0;
40371;PMS5003;28564;53.346;-6.554;2023-08-24T16:25:03;1;0;
40371;PMS5003;28564;53.346;-6.554;2023-08-24T16:27:31;0;0;
40371;PMS5003;28564;53.346;-6.554;2023-08-24T16:29:59;0;0;
40371;PMS5003;28564;53.346;-6.554;2023-08-24T16:32:26;0;0;
40371;PMS5003;28564;53.346;-6.554;2023-08-24T16:34:54;0;0;
40371;PMS5003;28564;53.346;-6.554;2023-08-24T16:37:21;1;0;
40371;PMS5003;28564;53.346;-6.554;2023-08-24T16:39:49;0;0;